createdAt,value
2023-03-02T00:00:02.208Z,-0.90
2023-03-02T00:02:52.285Z,-0.90
2023-03-02T00:05:43.345Z,-0.90
2023-03-02T00:08:32.151Z,-0.90
2023-03-02T00:11:21.732Z,-1.00
2023-03-02T00:14:10.348Z,-0.90
2023-03-02T00:16:59.050Z,-1.00
2023-03-02T00:19:49.176Z,-1.00
2023-03-02T00:22:37.842Z,-1.00
2023-03-02T00:25:26.509Z,-1.00
2023-03-02T00:28:15.263Z,-1.00
2023-03-02T00:31:06.167Z,-1.10
2023-03-02T00:33:55.463Z,-1.10
2023-03-02T00:36:45.584Z,-1.10
2023-03-02T00:39:34.231Z,-1.10
2023-03-02T00:42:23.365Z,-1.10
2023-03-02T00:45:12.678Z,-1.20
2023-03-02T00:48:01.313Z,-1.10
2023-03-02T00:50:49.982Z,-1.10
2023-03-02T00:53:40.576Z,-1.10
2023-03-02T00:56:29.264Z,-1.20
2023-03-02T00:59:30.552Z,-1.20
2023-03-02T01:02:21.651Z,-1.20
2023-03-02T01:05:10.889Z,-1.20
2023-03-02T01:07:59.580Z,-1.20
2023-03-02T01:10:49.693Z,-1.20
2023-03-02T01:13:38.268Z,-1.20
2023-03-02T01:16:27.104Z,-1.20
2023-03-02T01:19:15.863Z,-1.30
2023-03-02T01:22:06.475Z,-1.30
2023-03-02T01:24:55.104Z,-1.30
2023-03-02T01:27:45.088Z,-1.30
2023-03-02T01:30:33.783Z,-1.30
2023-03-02T01:33:22.480Z,-1.30
2023-03-02T01:36:11.366Z,-1.30
2023-03-02T01:38:59.968Z,-1.30
2023-03-02T01:41:48.617Z,-1.40
2023-03-02T01:44:42.293Z,-1.40
2023-03-02T01:47:36.742Z,-1.40
2023-03-02T01:50:27.465Z,-1.40
2023-03-02T01:53:17.890Z,-1.50
2023-03-02T01:56:07.870Z,-1.50
2023-03-02T01:59:02.096Z,-1.50
2023-03-02T02:01:56.562Z,-1.60
2023-03-02T02:04:48.661Z,-1.50
2023-03-02T02:07:37.590Z,-1.60
2023-03-02T02:10:26.469Z,-1.60
2023-03-02T02:13:15.079Z,-1.60
2023-03-02T02:16:03.938Z,-1.60
2023-03-02T02:18:54.422Z,-1.60
2023-03-02T02:21:43.158Z,-1.60
2023-03-02T02:24:38.463Z,-1.70
2023-03-02T02:27:29.940Z,-1.70
2023-03-02T02:30:19.984Z,-1.70
2023-03-02T02:33:14.765Z,-1.70
2023-03-02T02:36:07.536Z,-1.70
2023-03-02T02:38:57.625Z,-1.70
2023-03-02T02:41:48.998Z,-1.70
2023-03-02T02:44:39.162Z,-1.70
2023-03-02T02:47:28.036Z,-1.70
2023-03-02T02:50:20.972Z,-1.80
2023-03-02T02:53:19.410Z,-1.80
2023-03-02T02:56:09.877Z,-1.80
2023-03-02T02:59:02.918Z,-1.80
2023-03-02T03:01:54.036Z,-1.80
2023-03-02T03:04:42.823Z,-1.90
2023-03-02T03:07:33.436Z,-1.80
2023-03-02T03:10:28.525Z,-1.80
2023-03-02T03:13:17.230Z,-1.80
2023-03-02T03:16:10.962Z,-1.80
2023-03-02T03:19:06.685Z,-1.80
2023-03-02T03:21:57.823Z,-1.90
2023-03-02T03:24:47.644Z,-1.90
2023-03-02T03:27:36.340Z,-1.90
2023-03-02T03:30:24.922Z,-1.90
2023-03-02T03:33:13.562Z,-2.00
2023-03-02T03:36:04.051Z,-2.00
2023-03-02T03:38:52.688Z,-2.00
2023-03-02T03:41:42.136Z,-2.00
2023-03-02T03:44:31.258Z,-2.00
2023-03-02T03:47:19.989Z,-2.00
2023-03-02T03:50:09.201Z,-2.00
2023-03-02T03:52:59.264Z,-2.00
2023-03-02T03:55:48.046Z,-2.00
2023-03-02T03:58:36.923Z,-2.00
2023-03-02T04:01:35.131Z,-2.00
2023-03-02T04:04:26.385Z,-2.00
2023-03-02T04:07:15.438Z,-2.00
2023-03-02T04:10:06.555Z,-2.00
2023-03-02T04:12:55.201Z,-2.00
2023-03-02T04:15:46.566Z,-1.90
2023-03-02T04:18:35.662Z,-1.90
2023-03-02T04:21:24.684Z,-1.90
2023-03-02T04:24:14.611Z,-1.90
2023-03-02T04:27:05.177Z,-1.80
2023-03-02T04:29:53.874Z,-1.80
2023-03-02T04:32:43.976Z,-1.80
2023-03-02T04:35:32.607Z,-1.80
2023-03-02T04:38:21.268Z,-1.80
2023-03-02T04:41:09.877Z,-1.80
2023-03-02T04:43:59.946Z,-1.80
2023-03-02T04:46:49.377Z,-1.70
2023-03-02T04:49:38.452Z,-1.80
2023-03-02T04:52:27.151Z,-1.80
2023-03-02T04:55:20.857Z,-1.80
2023-03-02T04:58:09.828Z,-1.80
2023-03-02T05:01:02.303Z,-1.80
2023-03-02T05:03:51.486Z,-1.80
2023-03-02T05:06:40.389Z,-1.80
2023-03-02T05:09:30.953Z,-1.80
2023-03-02T05:12:21.762Z,-1.80
2023-03-02T05:15:11.007Z,-1.80
2023-03-02T05:18:01.423Z,-1.80
2023-03-02T05:20:50.430Z,-1.90
2023-03-02T05:23:39.043Z,-1.90
2023-03-02T05:26:27.652Z,-1.90
2023-03-02T05:29:16.322Z,-1.90
2023-03-02T05:32:05.184Z,-2.00
2023-03-02T05:34:55.309Z,-1.90
2023-03-02T05:37:44.896Z,-2.00
2023-03-02T05:40:33.857Z,-2.00
2023-03-02T05:43:23.565Z,-2.00
2023-03-02T05:46:12.434Z,-2.00
2023-03-02T05:49:01.072Z,-2.10
2023-03-02T05:51:51.133Z,-2.10
2023-03-02T05:54:39.858Z,-2.00
2023-03-02T05:57:28.568Z,-2.00
2023-03-02T06:00:19.343Z,-2.00
2023-03-02T06:03:08.005Z,-2.00
2023-03-02T06:05:56.619Z,-2.00
2023-03-02T06:08:46.677Z,-2.00
2023-03-02T06:11:35.296Z,-2.00
2023-03-02T06:14:23.909Z,-1.90
2023-03-02T06:17:12.575Z,-1.90
2023-03-02T06:20:01.222Z,-1.80
2023-03-02T06:22:49.868Z,-1.80
2023-03-02T06:25:43.699Z,-1.80
2023-03-02T06:28:34.270Z,-1.80
2023-03-02T06:31:32.152Z,-1.70
2023-03-02T06:34:20.904Z,-1.70
2023-03-02T06:37:09.497Z,-1.60
2023-03-02T06:39:58.878Z,-1.40
2023-03-02T06:42:49.171Z,-1.10
2023-03-02T06:45:38.137Z,-0.80
2023-03-02T06:48:26.831Z,-0.50
2023-03-02T06:51:15.443Z,-0.30
2023-03-02T06:54:04.681Z,0.10
2023-03-02T06:56:53.255Z,0.40
2023-03-02T06:59:43.261Z,0.60
2023-03-02T07:02:31.867Z,0.90
2023-03-02T07:05:20.822Z,1.20
2023-03-02T07:08:09.534Z,1.80
2023-03-02T07:10:58.385Z,1.80
2023-03-02T07:13:47.023Z,1.80
2023-03-02T07:16:37.070Z,1.90
2023-03-02T07:19:26.090Z,2.50
2023-03-02T07:22:14.643Z,2.80
2023-03-02T07:25:03.343Z,2.90
2023-03-02T07:27:52.019Z,2.70
2023-03-02T07:30:40.667Z,2.10
2023-03-02T07:33:30.752Z,1.50
2023-03-02T07:36:19.385Z,1.20
2023-03-02T07:39:08.110Z,1.30
2023-03-02T07:42:00.313Z,1.80
2023-03-02T07:44:49.076Z,2.50
2023-03-02T07:47:37.672Z,3.00
2023-03-02T07:50:27.710Z,3.10
2023-03-02T07:53:16.352Z,2.90
2023-03-02T07:56:09.301Z,2.50
2023-03-02T07:58:57.904Z,2.20
2023-03-02T08:01:46.642Z,2.00
2023-03-02T08:04:36.811Z,1.90
2023-03-02T08:07:26.974Z,2.00
2023-03-02T08:10:15.684Z,2.20
2023-03-02T08:13:05.164Z,2.50
2023-03-02T08:16:00.922Z,2.60
2023-03-02T08:18:49.557Z,2.90
2023-03-02T08:21:38.179Z,3.00
2023-03-02T08:24:28.282Z,2.90
2023-03-02T08:27:17.302Z,3.00
2023-03-02T08:30:06.760Z,3.00
2023-03-02T08:32:55.343Z,2.90
2023-03-02T08:35:44.019Z,2.80
2023-03-02T08:38:33.577Z,2.70
2023-03-02T08:41:26.123Z,2.90
2023-03-02T08:44:14.759Z,3.00
2023-03-02T08:47:03.501Z,3.00
2023-03-02T08:49:52.093Z,2.90
2023-03-02T08:52:40.662Z,3.00
2023-03-02T08:55:29.414Z,3.20
2023-03-02T08:58:19.889Z,3.40
2023-03-02T09:01:13.841Z,3.80
2023-03-02T09:04:02.941Z,4.00
2023-03-02T09:06:51.607Z,4.60
2023-03-02T09:09:40.292Z,5.40
2023-03-02T09:12:28.947Z,5.90
2023-03-02T09:15:19.251Z,6.40
2023-03-02T09:18:08.021Z,6.70
2023-03-02T09:20:57.757Z,6.30
2023-03-02T09:23:46.627Z,5.90
2023-03-02T09:26:36.104Z,5.70
2023-03-02T09:29:24.750Z,5.80
2023-03-02T09:32:16.420Z,5.80
2023-03-02T09:35:05.472Z,6.20
2023-03-02T09:37:54.315Z,6.10
2023-03-02T09:40:57.101Z,5.80
2023-03-02T09:43:54.863Z,5.60
2023-03-02T09:46:47.969Z,5.70
2023-03-02T09:49:55.992Z,5.70
2023-03-02T09:52:53.939Z,5.80
2023-03-02T09:55:42.618Z,6.00
2023-03-02T09:58:36.557Z,6.00
2023-03-02T10:01:37.285Z,6.40
2023-03-02T10:04:30.777Z,7.20
2023-03-02T10:07:27.343Z,8.00
2023-03-02T10:10:27.607Z,8.70
2023-03-02T10:13:26.614Z,9.20
2023-03-02T10:16:32.451Z,9.20
2023-03-02T10:19:26.348Z,9.80
2023-03-02T10:22:25.498Z,9.80
2023-03-02T10:25:25.314Z,9.40
2023-03-02T10:28:20.686Z,9.60
2023-03-02T10:31:11.440Z,9.80
2023-03-02T10:34:00.601Z,9.50
2023-03-02T10:36:49.400Z,8.70
2023-03-02T10:39:39.383Z,8.10
2023-03-02T11:03:24.617Z,6.50
2023-03-02T11:06:22.624Z,6.60
2023-03-02T11:09:16.150Z,6.70
2023-03-02T11:12:04.943Z,6.60
2023-03-02T11:20:52.076Z,7.20
2023-03-02T11:23:53.218Z,7.30
2023-03-02T11:31:08.368Z,7.30
2023-03-02T11:54:36.492Z,9.20
2023-03-02T11:57:34.444Z,9.20
2023-03-02T12:00:51.237Z,8.70
2023-03-02T12:07:00.380Z,8.00
2023-03-02T12:10:01.010Z,8.00
2023-03-02T12:13:04.093Z,8.40
2023-03-02T12:15:56.473Z,8.60
2023-03-02T12:18:49.672Z,9.10
2023-03-02T12:21:42.377Z,10.20
2023-03-02T12:24:48.892Z,11.00
2023-03-02T12:33:25.274Z,11.30
2023-03-02T12:36:23.886Z,11.30
2023-03-02T12:47:49.111Z,9.90
2023-03-02T12:51:19.162Z,10.30
2023-03-02T12:54:16.067Z,10.50
2023-03-02T12:57:09.189Z,10.60
2023-03-02T13:00:35.951Z,10.70
2023-03-02T13:03:29.447Z,10.30
2023-03-02T13:06:20.729Z,10.00
2023-03-02T13:09:20.571Z,9.90
2023-03-02T13:28:09.405Z,10.00
2023-03-02T13:31:01.873Z,10.10
2023-03-02T13:33:52.597Z,10.50
2023-03-02T13:36:58.673Z,11.20
2023-03-02T13:46:42.198Z,12.70
2023-03-02T13:49:33.698Z,13.10
2023-03-02T13:55:36.753Z,13.10
2023-03-02T13:58:26.582Z,13.60
2023-03-02T14:01:15.683Z,13.50
2023-03-02T14:07:07.206Z,12.00
2023-03-02T14:09:57.552Z,11.20
2023-03-02T14:12:54.559Z,10.70
2023-03-02T14:15:47.632Z,10.80
2023-03-02T14:18:40.343Z,11.70
2023-03-02T14:21:29.586Z,12.00
2023-03-02T14:24:19.677Z,10.80
2023-03-02T14:27:10.424Z,9.50
2023-03-02T14:29:59.671Z,8.90
2023-03-02T14:32:48.893Z,8.50
2023-03-02T14:35:38.072Z,8.30
2023-03-02T14:38:28.291Z,8.00
2023-03-02T14:41:23.706Z,7.90
2023-03-02T14:44:12.723Z,7.90
2023-03-02T14:47:01.311Z,7.80
2023-03-02T14:49:49.999Z,7.70
2023-03-02T14:52:42.308Z,7.70
2023-03-02T14:55:32.580Z,7.70
2023-03-02T14:58:31.715Z,7.70
2023-03-02T15:01:20.744Z,7.70
2023-03-02T15:04:09.357Z,7.60
2023-03-02T15:06:57.984Z,7.60
2023-03-02T15:09:46.608Z,7.60
2023-03-02T15:12:35.546Z,7.60
2023-03-02T15:15:26.605Z,7.50
2023-03-02T15:18:19.846Z,7.50
2023-03-02T15:21:18.198Z,7.50
2023-03-02T15:24:07.296Z,7.40
2023-03-02T15:26:56.226Z,7.40
2023-03-02T15:29:45.991Z,7.30
2023-03-02T15:32:38.214Z,7.30
2023-03-02T15:35:29.105Z,7.30
2023-03-02T15:38:17.811Z,7.20
2023-03-02T15:41:07.370Z,7.20
2023-03-02T15:43:56.139Z,7.20
2023-03-02T15:46:44.714Z,7.20
2023-03-02T15:49:34.749Z,7.10
2023-03-02T15:52:23.366Z,7.10
2023-03-02T15:58:08.264Z,7.00
2023-03-02T16:00:57.472Z,6.90
2023-03-02T16:03:46.572Z,6.90
2023-03-02T16:06:36.615Z,6.80
2023-03-02T16:09:26.498Z,6.70
2023-03-02T16:12:15.126Z,6.70
2023-03-02T16:15:03.766Z,6.80
2023-03-02T16:17:52.343Z,6.70
2023-03-02T16:20:41.447Z,6.70
2023-03-02T16:23:31.416Z,6.60
2023-03-02T16:26:22.217Z,6.50
2023-03-02T16:29:12.349Z,6.40
2023-03-02T16:32:01.060Z,6.40
2023-03-02T16:34:49.682Z,6.30
2023-03-02T16:37:38.545Z,6.20
2023-03-02T16:40:29.111Z,6.10
2023-03-02T16:43:17.698Z,6.00
2023-03-02T16:46:06.578Z,6.00
2023-03-02T16:48:55.726Z,5.80
2023-03-02T16:51:45.111Z,5.70
2023-03-02T16:54:33.708Z,5.50
2023-03-02T16:57:23.837Z,5.40
2023-03-02T17:00:16.104Z,5.50
2023-03-02T17:03:05.478Z,5.50
2023-03-02T17:05:54.140Z,5.40
2023-03-02T17:08:43.010Z,5.30
2023-03-02T17:11:31.954Z,5.30
2023-03-02T17:14:21.948Z,5.30
2023-03-02T17:17:10.823Z,5.30
2023-03-02T17:19:59.404Z,5.20
2023-03-02T17:22:48.118Z,5.20
2023-03-02T17:25:36.767Z,5.10
2023-03-02T17:28:27.914Z,5.10
2023-03-02T17:31:17.970Z,5.00
2023-03-02T17:34:08.389Z,5.00
2023-03-02T17:36:57.080Z,5.00
2023-03-02T17:39:45.688Z,4.90
2023-03-02T17:42:34.436Z,4.90
2023-03-02T17:45:25.524Z,4.80
2023-03-02T17:48:15.532Z,4.80
2023-03-02T17:51:04.280Z,4.70
2023-03-02T17:53:54.336Z,4.70
2023-03-02T17:56:42.943Z,4.70
2023-03-02T17:59:31.781Z,4.60
2023-03-02T18:02:20.669Z,4.50
2023-03-02T18:05:12.190Z,4.40
2023-03-02T18:08:00.797Z,4.40
2023-03-02T18:10:49.962Z,4.40
2023-03-02T18:13:38.629Z,4.50
2023-03-02T18:16:29.345Z,4.60
2023-03-02T18:19:17.987Z,4.60
2023-03-02T18:22:08.044Z,4.70
2023-03-02T18:24:56.999Z,4.70
2023-03-02T18:27:45.712Z,4.70
2023-03-02T18:30:34.349Z,4.70
2023-03-02T18:33:23.010Z,4.60
2023-03-02T18:36:12.082Z,4.50
2023-03-02T18:39:03.409Z,4.50
2023-03-02T18:41:52.038Z,4.50
2023-03-02T18:44:40.674Z,4.50
2023-03-02T18:47:29.449Z,4.50
2023-03-02T18:50:18.222Z,4.50
2023-03-02T18:53:08.727Z,4.60
2023-03-02T18:55:58.867Z,4.50
2023-03-02T18:58:48.656Z,4.50
2023-03-02T19:01:37.562Z,4.40
2023-03-02T19:04:27.140Z,4.40
2023-03-02T19:07:15.823Z,4.30
2023-03-02T19:10:05.040Z,4.30
2023-03-02T19:12:55.053Z,4.30
2023-03-02T19:15:44.088Z,4.20
2023-03-02T19:18:33.327Z,4.10
2023-03-02T19:21:21.952Z,4.00
2023-03-02T19:24:10.563Z,4.00
2023-03-02T19:26:59.947Z,4.00
2023-03-02T19:29:49.936Z,4.00
2023-03-02T19:32:39.332Z,4.00
2023-03-02T19:35:29.173Z,3.90
2023-03-02T19:38:18.330Z,3.90
2023-03-02T19:41:07.718Z,3.90
2023-03-02T19:43:56.297Z,3.90
2023-03-02T19:46:46.260Z,3.90
2023-03-02T19:49:34.855Z,3.90
2023-03-02T19:52:23.446Z,3.80
2023-03-02T19:55:14.109Z,3.70
2023-03-02T19:58:03.038Z,3.70
2023-03-02T20:00:51.636Z,3.70
2023-03-02T20:03:41.715Z,3.60
2023-03-02T20:06:32.774Z,3.70
2023-03-02T20:09:24.277Z,3.70
2023-03-02T20:12:12.941Z,3.80
2023-03-02T20:15:02.909Z,3.70
2023-03-02T20:17:51.553Z,3.70
2023-03-02T20:20:42.264Z,3.70
2023-03-02T20:23:30.874Z,3.70
2023-03-02T20:26:19.565Z,3.70
2023-03-02T20:29:09.112Z,3.70
2023-03-02T20:31:58.212Z,3.70
2023-03-02T20:34:46.923Z,3.70
2023-03-02T20:37:37.517Z,3.60
2023-03-02T20:40:27.107Z,3.50
2023-03-02T20:43:15.821Z,3.50
2023-03-02T20:46:04.956Z,3.50
2023-03-02T20:48:53.662Z,3.40
2023-03-02T20:51:45.380Z,3.40
2023-03-02T20:54:38.617Z,3.40
2023-03-02T20:57:27.239Z,3.50
2023-03-02T21:00:20.805Z,3.50
2023-03-02T21:03:10.448Z,3.40
2023-03-02T21:05:59.061Z,3.40
2023-03-02T21:08:47.738Z,3.40
2023-03-02T21:11:38.675Z,3.30
2023-03-02T21:14:28.588Z,3.40
2023-03-02T21:17:17.203Z,3.40
2023-03-02T21:20:06.907Z,3.30
2023-03-02T21:22:56.028Z,3.30
2023-03-02T21:25:45.078Z,3.20
2023-03-02T21:28:35.097Z,3.20
2023-03-02T21:31:23.820Z,3.10
2023-03-02T21:34:12.798Z,3.10
2023-03-02T21:37:01.496Z,3.20
2023-03-02T21:39:50.164Z,3.20
2023-03-02T21:42:38.816Z,3.20
2023-03-02T21:45:29.168Z,3.20
2023-03-02T21:48:18.553Z,3.20
2023-03-02T21:51:08.047Z,3.30
2023-03-02T21:53:56.647Z,3.30
2023-03-02T21:56:45.270Z,3.20
2023-03-02T21:59:34.003Z,3.20
2023-03-02T22:02:24.054Z,3.10
2023-03-02T22:05:12.854Z,3.10
2023-03-02T22:08:01.463Z,3.00
2023-03-02T22:10:52.063Z,3.00
2023-03-02T22:13:40.697Z,2.90
2023-03-02T22:16:34.479Z,2.80
2023-03-02T22:19:27.719Z,2.80
2023-03-02T22:22:20.053Z,2.80
2023-03-02T22:25:16.542Z,2.60
2023-03-02T22:28:15.288Z,2.60
2023-03-02T22:31:17.729Z,2.50
2023-03-02T22:34:14.384Z,2.50
2023-03-02T22:37:11.578Z,2.40
2023-03-02T22:40:03.910Z,2.40
2023-03-02T22:42:57.312Z,2.40
2023-03-02T22:45:45.977Z,2.40
2023-03-02T22:48:35.958Z,2.40
2023-03-02T22:51:29.168Z,2.40
2023-03-02T22:54:25.756Z,2.40
2023-03-02T22:58:32.455Z,2.40
2023-03-02T23:01:30.191Z,2.30
2023-03-02T23:04:23.056Z,2.30
2023-03-02T23:15:31.054Z,2.00
2023-03-02T23:18:33.820Z,1.90
2023-03-02T23:21:28.398Z,1.90
2023-03-02T23:24:20.884Z,1.80
2023-03-02T23:27:11.116Z,1.80
2023-03-02T23:30:01.213Z,1.80
2023-03-02T23:32:51.673Z,1.80
2023-03-02T23:35:42.058Z,1.90
2023-03-02T23:38:31.919Z,1.80
2023-03-02T23:41:20.909Z,1.80
2023-03-02T23:44:10.124Z,1.70
2023-03-02T23:46:59.383Z,1.80
2023-03-02T23:49:50.229Z,1.80
2023-03-02T23:52:45.135Z,1.70
2023-03-02T23:55:34.988Z,1.70
2023-03-02T23:58:25.148Z,1.70
